createdAt,value
2022-10-17T00:02:27.467Z,51.88
2022-10-17T00:05:11.942Z,51.78
2022-10-17T00:07:56.431Z,52.61
2022-10-17T00:10:42.256Z,52.47
2022-10-17T00:13:26.539Z,52.72
2022-10-17T00:16:10.737Z,52.85
2022-10-17T00:18:54.698Z,53.05
2022-10-17T00:21:38.523Z,53.12
2022-10-17T00:24:22.218Z,54.07
2022-10-17T00:27:07.382Z,53.83
2022-10-17T00:29:51.595Z,53.85
2022-10-17T00:32:35.515Z,54.16
2022-10-17T00:35:19.394Z,54.24
2022-10-17T00:38:05.206Z,53.90
2022-10-17T00:40:49.065Z,53.66
2022-10-17T00:43:51.204Z,53.63
2022-10-17T00:46:39.215Z,53.14
2022-10-17T00:49:28.817Z,52.78
2022-10-17T00:52:17.039Z,52.59
2022-10-17T00:55:05.772Z,52.56
2022-10-17T00:57:50.050Z,52.23
2022-10-17T01:00:38.247Z,52.52
2022-10-17T01:03:22.147Z,52.67
2022-10-17T01:06:06.291Z,53.05
2022-10-17T01:08:50.257Z,52.95
2022-10-17T01:11:41.141Z,53.56
2022-10-17T01:14:32.607Z,53.32
2022-10-17T01:17:26.471Z,53.97
2022-10-17T01:20:32.994Z,53.75
2022-10-17T01:23:46.568Z,53.55
2022-10-17T01:26:42.706Z,53.24
2022-10-17T01:29:41.561Z,52.68
2022-10-17T01:32:34.187Z,53.03
2022-10-17T01:35:24.082Z,52.67
2022-10-17T01:38:12.920Z,52.75
2022-10-17T01:41:04.165Z,52.70
2022-10-17T01:43:54.320Z,52.59
2022-10-17T01:46:39.838Z,52.95
2022-10-17T01:49:29.833Z,52.83
2022-10-17T01:52:19.935Z,53.16
2022-10-17T01:55:09.462Z,52.74
2022-10-17T01:57:56.371Z,53.07
2022-10-17T02:00:44.316Z,52.98
2022-10-17T02:03:29.986Z,52.83
2022-10-17T02:06:15.786Z,53.15
2022-10-17T02:08:59.510Z,52.83
2022-10-17T02:11:44.105Z,52.69
2022-10-17T02:14:38.825Z,53.55
2022-10-17T02:17:35.542Z,53.54
2022-10-17T02:20:25.126Z,53.63
2022-10-17T02:23:20.318Z,53.91
2022-10-17T02:26:11.325Z,53.90
2022-10-17T02:29:04.516Z,53.62
2022-10-17T02:31:51.242Z,53.58
2022-10-17T02:34:39.828Z,53.62
2022-10-17T02:37:27.745Z,53.38
2022-10-17T02:40:15.545Z,54.02
2022-10-17T02:43:00.995Z,53.51
2022-10-17T02:45:47.127Z,53.36
2022-10-17T02:48:38.216Z,54.11
2022-10-17T02:51:31.150Z,53.67
2022-10-17T02:54:21.512Z,53.49
2022-10-17T02:57:11.813Z,53.17
2022-10-17T02:59:58.883Z,53.14
2022-10-17T03:02:44.605Z,53.18
2022-10-17T03:05:30.535Z,53.62
2022-10-17T03:08:14.430Z,53.86
2022-10-17T03:10:58.290Z,53.84
2022-10-17T03:13:45.507Z,53.99
2022-10-17T03:16:29.392Z,54.20
2022-10-17T03:19:13.238Z,53.68
2022-10-17T03:21:57.025Z,53.91
2022-10-17T03:24:40.876Z,53.81
2022-10-17T03:27:24.812Z,53.53
2022-10-17T03:30:11.395Z,53.10
2022-10-17T03:32:56.101Z,53.41
2022-10-17T03:35:41.439Z,53.40
2022-10-17T03:38:25.740Z,53.46
2022-10-17T03:41:09.616Z,53.41
2022-10-17T03:43:55.082Z,53.53
2022-10-17T03:46:41.866Z,53.38
2022-10-17T03:49:25.740Z,53.50
2022-10-17T03:52:13.218Z,52.91
2022-10-17T03:54:57.564Z,52.93
2022-10-17T03:57:43.411Z,52.81
2022-10-17T04:00:30.181Z,52.39
2022-10-17T04:03:17.277Z,52.47
2022-10-17T04:06:02.605Z,52.53
2022-10-17T04:08:48.682Z,52.16
2022-10-17T04:11:45.069Z,52.10
2022-10-17T04:14:29.814Z,52.05
2022-10-17T04:17:14.063Z,52.19
2022-10-17T04:19:59.320Z,51.95
2022-10-17T04:22:43.904Z,51.91
2022-10-17T04:25:27.666Z,50.87
2022-10-17T04:28:11.813Z,51.49
2022-10-17T04:30:59.289Z,51.20
2022-10-17T04:33:49.241Z,50.64
2022-10-17T04:36:34.381Z,50.85
2022-10-17T04:39:18.508Z,50.66
2022-10-17T04:42:03.238Z,50.89
2022-10-17T04:44:47.208Z,50.40
2022-10-17T04:47:33.648Z,50.32
2022-10-17T04:50:17.799Z,50.31
2022-10-17T04:53:21.025Z,50.06
2022-10-17T04:56:09.691Z,50.29
2022-10-17T04:58:53.685Z,50.33
2022-10-17T05:01:38.856Z,50.16
2022-10-17T05:04:24.891Z,50.62
2022-10-17T05:07:10.440Z,50.74
2022-10-17T05:10:18.532Z,51.14
2022-10-17T05:13:05.158Z,50.40
2022-10-17T05:15:50.507Z,50.90
2022-10-17T05:18:34.473Z,51.03
2022-10-17T05:21:19.306Z,51.24
2022-10-17T05:24:07.107Z,51.39
2022-10-17T05:26:52.870Z,51.42
2022-10-17T05:29:36.879Z,51.41
2022-10-17T05:32:31.733Z,51.64
2022-10-17T05:35:15.910Z,51.32
2022-10-17T05:38:00.664Z,51.25
2022-10-17T05:40:46.692Z,51.03
2022-10-17T05:43:33.184Z,51.12
2022-10-17T05:46:17.395Z,50.46
2022-10-17T05:49:01.138Z,50.40
2022-10-17T05:51:44.901Z,50.37
2022-10-17T05:54:29.092Z,50.29
2022-10-17T05:57:13.076Z,50.38
2022-10-17T05:59:59.284Z,49.64
2022-10-17T06:02:43.143Z,49.25
2022-10-17T06:05:29.388Z,50.03
2022-10-17T06:08:13.761Z,49.53
2022-10-17T06:10:59.857Z,49.89
2022-10-17T06:13:43.829Z,49.94
2022-10-17T06:16:34.327Z,49.98
2022-10-17T06:19:18.211Z,50.07
2022-10-17T06:22:03.344Z,50.33
2022-10-17T06:24:47.949Z,49.74
2022-10-17T06:27:32.464Z,49.21
2022-10-17T06:30:16.527Z,49.40
2022-10-17T06:33:03.493Z,49.62
2022-10-17T06:35:52.743Z,50.48
2022-10-17T06:38:37.225Z,52.42
2022-10-17T06:41:25.449Z,52.67
2022-10-17T06:44:12.035Z,52.04
2022-10-17T06:47:16.641Z,52.98
2022-10-17T06:50:04.691Z,53.72
2022-10-17T06:52:55.724Z,54.19
2022-10-17T06:56:02.996Z,53.45
2022-10-17T06:59:10.889Z,53.88
2022-10-17T07:01:57.418Z,53.69
2022-10-17T07:04:42.215Z,55.27
2022-10-17T07:07:33.627Z,55.59
2022-10-17T07:10:17.608Z,56.29
2022-10-17T07:13:01.518Z,56.39
2022-10-17T07:15:49.494Z,57.05
2022-10-17T07:18:34.158Z,56.41
2022-10-17T07:21:18.311Z,55.64
2022-10-17T07:24:03.767Z,55.65
2022-10-17T07:26:47.798Z,55.70
2022-10-17T07:29:32.059Z,56.20
2022-10-17T07:32:22.650Z,55.38
2022-10-17T07:35:06.705Z,55.13
2022-10-17T07:37:50.473Z,54.97
2022-10-17T07:40:38.153Z,53.73
2022-10-17T07:43:21.978Z,53.22
2022-10-17T07:46:06.693Z,52.52
2022-10-17T07:48:51.118Z,53.61
2022-10-17T07:51:37.586Z,54.38
2022-10-17T07:54:21.310Z,54.79
2022-10-17T07:57:06.708Z,54.74
2022-10-17T07:59:51.355Z,55.02
2022-10-17T08:02:35.167Z,54.91
2022-10-17T08:05:18.898Z,54.47
2022-10-17T08:08:02.744Z,53.58
2022-10-17T08:10:46.531Z,53.19
2022-10-17T08:13:31.655Z,53.91
2022-10-17T08:16:15.393Z,53.96
2022-10-17T08:18:59.189Z,53.57
2022-10-17T08:21:44.994Z,52.70
2022-10-17T08:24:28.751Z,52.05
2022-10-17T08:27:13.711Z,52.69
2022-10-17T08:29:58.848Z,52.76
2022-10-17T08:32:43.013Z,52.31
2022-10-17T08:35:26.760Z,52.62
2022-10-17T08:38:12.348Z,52.81
2022-10-17T08:41:01.118Z,52.92
2022-10-17T08:44:00.754Z,52.49
2022-10-17T08:46:49.532Z,51.12
2022-10-17T08:49:41.069Z,50.34
2022-10-17T08:52:34.648Z,50.20
2022-10-17T08:55:29.082Z,50.92
2022-10-17T08:58:16.015Z,50.76
2022-10-17T09:01:11.951Z,50.97
2022-10-17T09:04:17.242Z,51.19
2022-10-17T09:07:06.860Z,50.49
2022-10-17T09:09:58.396Z,50.03
2022-10-17T09:12:50.023Z,50.66
2022-10-17T09:15:44.595Z,50.76
2022-10-17T09:18:31.664Z,49.42
2022-10-17T09:21:24.593Z,49.27
2022-10-17T09:24:16.307Z,48.97
2022-10-17T09:27:01.130Z,48.31
2022-10-17T09:29:50.225Z,48.95
2022-10-17T09:32:34.522Z,49.09
2022-10-17T09:35:19.290Z,48.64
2022-10-17T09:38:04.943Z,48.77
2022-10-17T09:40:57.147Z,48.66
2022-10-17T09:43:41.469Z,48.31
2022-10-17T09:46:30.596Z,48.19
2022-10-17T09:49:20.069Z,48.09
2022-10-17T09:52:06.508Z,47.26
2022-10-17T09:54:54.462Z,47.86
2022-10-17T09:57:54.797Z,47.39
2022-10-17T10:00:40.816Z,47.74
2022-10-17T10:03:26.383Z,48.50
2022-10-17T10:06:15.835Z,48.78
2022-10-17T10:08:59.856Z,49.45
2022-10-17T10:11:49.987Z,49.03
2022-10-17T10:14:37.008Z,49.44
2022-10-17T10:17:36.645Z,48.80
2022-10-17T10:20:30.803Z,48.93
2022-10-17T10:23:17.413Z,49.21
2022-10-17T10:26:04.407Z,48.25
2022-10-17T10:28:56.206Z,48.03
2022-10-17T10:31:41.473Z,48.53
2022-10-17T10:34:29.034Z,48.04
2022-10-17T10:37:20.933Z,46.36
2022-10-17T10:40:07.554Z,46.14
2022-10-17T10:42:54.372Z,46.09
2022-10-17T10:45:48.992Z,46.52
2022-10-17T10:48:37.016Z,46.99
2022-10-17T10:51:25.983Z,47.62
2022-10-17T10:54:15.783Z,45.97
2022-10-17T10:57:03.449Z,46.58
2022-10-17T10:59:58.467Z,46.99
2022-10-17T11:02:53.001Z,45.35
2022-10-17T11:05:44.448Z,45.15
2022-10-17T11:08:35.538Z,45.23
2022-10-17T11:11:27.171Z,45.42
2022-10-17T11:14:16.988Z,44.27
2022-10-17T11:17:10.274Z,44.57
2022-10-17T11:20:08.346Z,44.84
2022-10-17T11:22:57.704Z,44.31
2022-10-17T11:25:42.730Z,45.36
2022-10-17T11:28:26.884Z,45.44
2022-10-17T11:31:14.510Z,44.96
2022-10-17T11:34:01.505Z,44.09
2022-10-17T11:36:50.064Z,44.42
2022-10-17T11:39:42.678Z,44.48
2022-10-17T11:42:32.137Z,44.24
2022-10-17T11:45:21.433Z,44.10
2022-10-17T11:48:11.885Z,44.19
2022-10-17T11:54:16.852Z,43.37
2022-10-17T11:57:25.169Z,43.16
2022-10-17T12:00:32.671Z,43.42
2022-10-17T12:03:31.007Z,42.93
2022-10-17T12:06:22.925Z,42.37
2022-10-17T12:09:20.076Z,42.61
2022-10-17T12:12:05.090Z,42.09
2022-10-17T12:14:48.897Z,42.11
2022-10-17T12:17:37.027Z,42.78
2022-10-17T12:20:38.220Z,43.15
2022-10-17T12:23:27.917Z,42.98
2022-10-17T12:26:27.642Z,42.93
2022-10-17T12:29:28.134Z,42.49
2022-10-17T12:32:13.299Z,43.16
2022-10-17T12:34:58.826Z,41.30
2022-10-17T12:38:02.704Z,42.07
2022-10-17T12:40:55.401Z,42.86
2022-10-17T12:46:51.195Z,42.44
2022-10-17T12:49:45.470Z,42.79
2022-10-17T12:52:57.979Z,43.35
2022-10-17T12:55:41.870Z,42.30
2022-10-17T12:58:25.642Z,42.54
2022-10-17T13:01:24.252Z,42.45
2022-10-17T13:04:12.024Z,42.69
2022-10-17T13:06:58.644Z,43.60
2022-10-17T13:09:45.743Z,43.35
2022-10-17T13:12:29.887Z,43.23
2022-10-17T13:15:18.629Z,43.21
2022-10-17T13:18:03.892Z,43.08
2022-10-17T13:21:00.256Z,42.68
2022-10-17T13:23:44.136Z,43.19
2022-10-17T13:26:29.740Z,43.79
2022-10-17T13:29:18.067Z,43.45
2022-10-17T13:32:04.112Z,43.52
2022-10-17T13:35:07.214Z,43.82
2022-10-17T13:37:54.177Z,43.88
2022-10-17T13:40:49.651Z,43.69
2022-10-17T13:43:34.219Z,43.83
2022-10-17T13:46:37.293Z,44.30
2022-10-17T13:49:28.256Z,43.50
2022-10-17T13:52:20.762Z,44.12
2022-10-17T13:55:11.735Z,43.71
2022-10-17T13:57:57.427Z,43.91
2022-10-17T14:00:41.410Z,43.88
2022-10-17T14:03:32.570Z,44.17
2022-10-17T14:06:26.561Z,44.66
2022-10-17T14:09:22.728Z,45.10
2022-10-17T14:12:12.853Z,45.66
2022-10-17T14:15:10.122Z,46.23
2022-10-17T14:17:57.861Z,46.52
2022-10-17T14:21:20.407Z,46.54
2022-10-17T14:23:46.066Z,47.42
2022-10-17T14:26:37.021Z,47.62
2022-10-17T14:29:24.900Z,47.72
2022-10-17T14:32:09.723Z,47.79
2022-10-17T14:35:05.620Z,47.98
2022-10-17T14:38:01.596Z,48.62
2022-10-17T14:40:51.994Z,48.79
2022-10-17T14:43:37.370Z,48.55
2022-10-17T14:46:21.431Z,48.73
2022-10-17T14:49:08.477Z,49.11
2022-10-17T14:52:25.551Z,49.47
2022-10-17T14:55:24.930Z,49.79
2022-10-17T14:58:19.394Z,50.07
2022-10-17T15:01:04.813Z,50.73
2022-10-17T15:03:48.904Z,51.40
2022-10-17T15:06:35.261Z,52.35
2022-10-17T15:09:19.131Z,52.87
2022-10-17T15:12:03.794Z,52.82
2022-10-17T15:14:48.793Z,53.59
2022-10-17T15:17:34.806Z,54.57
2022-10-17T15:20:20.329Z,54.62
2022-10-17T15:23:04.719Z,54.82
2022-10-17T15:25:48.582Z,55.60
2022-10-17T15:28:32.559Z,55.42
2022-10-17T15:31:18.324Z,55.51
2022-10-17T15:34:03.716Z,55.66
2022-10-17T15:36:51.556Z,55.95
2022-10-17T15:39:35.655Z,56.71
2022-10-17T15:42:19.614Z,56.92
2022-10-17T15:45:05.907Z,57.81
2022-10-17T15:47:52.758Z,58.43
2022-10-17T15:50:38.097Z,58.37
2022-10-17T15:53:22.616Z,58.63
2022-10-17T15:56:08.390Z,59.36
2022-10-17T15:58:52.472Z,59.13
2022-10-17T16:01:36.724Z,59.25
2022-10-17T16:04:20.882Z,59.59
2022-10-17T16:07:06.301Z,60.08
2022-10-17T16:09:53.582Z,61.10
2022-10-17T16:12:41.488Z,60.73
2022-10-17T16:15:28.147Z,61.27
2022-10-17T16:18:12.045Z,61.33
2022-10-17T16:20:56.036Z,61.34
2022-10-17T16:23:41.455Z,61.38
2022-10-17T16:26:25.389Z,62.26
2022-10-17T16:29:10.401Z,61.86
2022-10-17T16:31:54.440Z,61.75
2022-10-17T16:34:38.333Z,61.32
2022-10-17T16:37:22.255Z,61.39
2022-10-17T16:40:08.399Z,61.49
2022-10-17T16:42:52.325Z,62.34
2022-10-17T16:45:37.553Z,62.23
2022-10-17T16:48:23.136Z,62.01
2022-10-17T16:51:10.089Z,61.90
2022-10-17T16:53:54.788Z,61.90
2022-10-17T16:56:40.115Z,62.18
2022-10-17T16:59:24.252Z,62.17
2022-10-17T17:02:08.236Z,61.85
2022-10-17T17:04:55.061Z,62.44
2022-10-17T17:07:38.967Z,62.53
2022-10-17T17:10:25.877Z,62.30
2022-10-17T17:13:11.359Z,63.11
2022-10-17T17:16:04.078Z,62.71
2022-10-17T17:18:49.398Z,63.05
2022-10-17T17:21:33.614Z,64.11
2022-10-17T17:24:18.546Z,63.95
2022-10-17T17:27:02.472Z,63.81
2022-10-17T17:29:48.860Z,63.42
2022-10-17T17:32:34.397Z,63.20
2022-10-17T17:35:18.824Z,64.05
2022-10-17T17:38:06.874Z,63.95
2022-10-17T17:40:52.794Z,63.87
2022-10-17T17:43:37.391Z,64.14
2022-10-17T17:46:23.886Z,64.38
2022-10-17T17:49:10.835Z,64.31
2022-10-17T17:51:55.129Z,64.50
2022-10-17T17:54:40.944Z,64.86
2022-10-17T17:57:26.138Z,65.19
2022-10-17T18:00:11.040Z,65.51
2022-10-17T18:02:57.608Z,65.53
2022-10-17T18:05:41.830Z,65.07
2022-10-17T18:08:32.364Z,65.44
2022-10-17T18:11:19.648Z,65.70
2022-10-17T18:14:08.859Z,65.68
2022-10-17T18:16:53.101Z,65.70
2022-10-17T18:19:40.159Z,66.17
2022-10-17T18:22:35.269Z,67.37
2022-10-17T18:25:19.295Z,66.66
2022-10-17T18:28:03.528Z,66.83
2022-10-17T18:30:47.581Z,67.37
2022-10-17T18:33:31.908Z,67.44
2022-10-17T18:36:17.396Z,67.42
2022-10-17T18:39:02.574Z,67.53
2022-10-17T18:41:46.714Z,69.30
2022-10-17T18:44:30.927Z,69.80
2022-10-17T18:47:18.044Z,70.54
2022-10-17T18:50:04.628Z,70.67
2022-10-17T18:52:50.499Z,70.68
2022-10-17T18:55:34.516Z,71.70
2022-10-17T18:58:20.711Z,71.85
2022-10-17T19:01:11.349Z,71.80
2022-10-17T19:03:59.831Z,71.75
2022-10-17T19:06:46.930Z,71.84
2022-10-17T19:09:34.901Z,72.28
2022-10-17T19:12:18.870Z,73.69
2022-10-17T19:15:02.787Z,74.14
2022-10-17T19:17:49.479Z,73.42
2022-10-17T19:20:33.570Z,73.72
2022-10-17T19:23:21.906Z,72.94
2022-10-17T19:26:10.263Z,73.29
2022-10-17T19:28:57.756Z,73.12
2022-10-17T19:31:44.335Z,73.25
2022-10-17T19:34:34.866Z,74.29
2022-10-17T19:37:23.287Z,74.11
2022-10-17T19:40:09.975Z,74.12
2022-10-17T19:42:57.484Z,74.43
2022-10-17T19:45:44.702Z,74.45
2022-10-17T19:48:29.372Z,74.66
2022-10-17T19:51:21.473Z,75.61
2022-10-17T19:54:05.803Z,75.50
2022-10-17T19:56:50.090Z,75.81
2022-10-17T19:59:35.645Z,75.22
2022-10-17T20:02:22.188Z,75.08
2022-10-17T20:05:19.356Z,74.89
2022-10-17T20:08:04.176Z,74.33
2022-10-17T20:10:48.435Z,74.88
2022-10-17T20:13:32.370Z,75.19
2022-10-17T20:16:20.834Z,75.67
2022-10-17T20:19:07.533Z,75.52
2022-10-17T20:21:51.603Z,76.30
2022-10-17T20:24:38.217Z,75.61
2022-10-17T20:27:26.805Z,75.60
2022-10-17T20:30:12.306Z,75.27
2022-10-17T20:32:57.702Z,74.88
2022-10-17T20:38:35.149Z,74.90
2022-10-17T20:41:19.254Z,74.75
2022-10-17T20:44:03.416Z,73.55
2022-10-17T20:47:01.309Z,74.05
2022-10-17T20:49:50.099Z,74.56
2022-10-17T20:52:34.187Z,74.25
2022-10-17T20:55:18.457Z,74.83
2022-10-17T20:58:02.516Z,75.88
2022-10-17T21:00:46.916Z,77.71
2022-10-17T21:03:31.106Z,76.60
2022-10-17T21:06:17.391Z,79.18
2022-10-17T21:09:01.589Z,78.83
2022-10-17T21:11:46.036Z,79.39
2022-10-17T21:14:30.200Z,79.86
2022-10-17T21:17:14.235Z,80.22
2022-10-17T21:19:58.443Z,79.50
2022-10-17T21:22:44.110Z,80.33
2022-10-17T21:25:28.394Z,79.38
2022-10-17T21:28:12.477Z,79.12
2022-10-17T21:30:56.524Z,79.08
2022-10-17T21:33:41.860Z,79.54
2022-10-17T21:36:27.459Z,79.54
2022-10-17T21:39:14.100Z,79.04
2022-10-17T21:41:58.256Z,80.00
2022-10-17T21:44:42.347Z,79.34
2022-10-17T21:47:27.751Z,79.07
2022-10-17T21:50:11.825Z,78.98
2022-10-17T21:52:56.145Z,79.02
2022-10-17T21:55:41.579Z,78.12
2022-10-17T21:58:25.598Z,78.18
2022-10-17T22:01:12.679Z,77.95
2022-10-17T22:03:58.956Z,77.22
2022-10-17T22:06:45.179Z,76.77
2022-10-17T22:09:29.301Z,76.48
2022-10-17T22:12:14.660Z,76.89
2022-10-17T22:14:58.520Z,76.25
2022-10-17T22:17:42.465Z,76.21
2022-10-17T22:20:26.506Z,76.77
2022-10-17T22:23:10.322Z,79.09
2022-10-17T22:25:55.143Z,77.99
2022-10-17T22:28:42.061Z,78.01
2022-10-17T22:31:26.404Z,77.78
2022-10-17T22:34:13.361Z,77.97
2022-10-17T22:36:57.329Z,78.19
2022-10-17T22:39:41.304Z,78.13
2022-10-17T22:42:25.190Z,78.31
2022-10-17T22:45:11.492Z,78.18
2022-10-17T22:47:55.524Z,78.69
2022-10-17T22:50:42.862Z,78.60
2022-10-17T22:53:27.630Z,79.29
2022-10-17T22:56:13.609Z,80.18
2022-10-17T22:58:57.602Z,80.50
2022-10-17T23:01:43.043Z,80.72
2022-10-17T23:04:27.536Z,80.19
2022-10-17T23:07:14.354Z,80.17
2022-10-17T23:09:58.418Z,81.32
2022-10-17T23:12:42.365Z,80.98
2022-10-17T23:15:26.177Z,80.66
2022-10-17T23:18:11.811Z,81.08
2022-10-17T23:20:56.371Z,80.50
2022-10-17T23:23:40.325Z,80.34
2022-10-17T23:26:24.196Z,80.14
2022-10-17T23:29:08.221Z,79.84
2022-10-17T23:31:55.617Z,79.84
2022-10-17T23:34:41.018Z,79.33
2022-10-17T23:37:25.101Z,79.46
2022-10-17T23:40:10.357Z,79.20
2022-10-17T23:42:54.383Z,79.64
2022-10-17T23:48:22.989Z,79.17
2022-10-17T23:51:09.176Z,79.26
2022-10-17T23:53:53.180Z,79.62
2022-10-17T23:56:37.064Z,79.45
2022-10-17T23:59:20.988Z,79.15
